createdAt,value
2019-05-03T15:20:50.354Z,3.65
2019-05-03T15:23:19.975Z,4.73
2019-05-03T15:25:50.608Z,4.40
2019-05-03T15:28:20.115Z,4.50
2019-05-03T15:30:49.595Z,4.10
2019-05-03T15:33:19.084Z,4.47
2019-05-03T15:35:48.609Z,4.90
2019-05-03T15:38:18.991Z,5.37
2019-05-03T15:40:48.453Z,4.87
2019-05-03T15:43:29.380Z,4.67
2019-05-03T15:46:10.498Z,3.87
2019-05-03T15:48:45.840Z,4.60
2019-05-03T15:51:15.364Z,4.20
2019-05-03T15:53:44.899Z,4.50
2019-05-03T15:56:14.679Z,4.37
2019-05-03T15:58:46.751Z,4.70
2019-05-03T16:01:15.484Z,4.27
2019-05-03T16:03:45.909Z,4.43
2019-05-03T16:06:15.716Z,4.27
2019-05-03T16:08:45.491Z,5.80
2019-05-03T16:11:14.979Z,4.70
2019-05-03T16:13:44.949Z,4.07
2019-05-03T16:16:15.244Z,4.40
2019-05-03T16:18:45.816Z,5.43
2019-05-03T16:21:15.272Z,8.80
2019-05-03T16:23:46.721Z,4.90
2019-05-03T16:26:16.459Z,4.63
2019-05-03T16:28:47.556Z,5.00
2019-05-03T16:31:21.565Z,4.60
2019-05-03T16:33:55.024Z,4.33
2019-05-03T16:36:24.542Z,5.33
2019-05-03T16:38:55.691Z,5.10
2019-05-03T16:41:27.803Z,5.40
2019-05-03T16:43:57.292Z,4.97
2019-05-03T16:46:28.660Z,5.30
2019-05-03T16:48:58.114Z,4.90
2019-05-03T16:51:27.909Z,4.57
2019-05-03T16:53:57.388Z,5.20
2019-05-03T16:56:27.807Z,5.13
2019-05-03T16:58:57.419Z,5.03
2019-05-03T17:01:26.912Z,4.70
2019-05-03T17:03:58.034Z,4.93
2019-05-03T17:06:41.398Z,4.53
2019-05-03T17:09:21.966Z,4.97
2019-05-03T17:11:56.265Z,5.80
2019-05-03T17:14:25.907Z,4.90
2019-05-03T17:16:55.679Z,4.77
2019-05-03T17:19:25.291Z,5.17
2019-05-03T17:21:54.853Z,4.63
2019-05-03T17:24:24.836Z,4.60
2019-05-03T17:26:55.139Z,4.87
2019-05-03T17:29:25.143Z,5.00
2019-05-03T17:31:55.123Z,4.80
2019-05-03T17:34:25.115Z,5.50
2019-05-03T17:36:54.631Z,4.97
2019-05-03T17:39:25.904Z,5.60
2019-05-03T17:42:02.730Z,4.73
2019-05-03T17:44:36.507Z,5.37
2019-05-03T17:47:05.959Z,5.10
2019-05-03T17:49:35.449Z,5.60
2019-05-03T17:52:07.828Z,5.93
2019-05-03T17:54:45.040Z,5.10
2019-05-03T17:57:16.383Z,5.40
2019-05-03T17:59:47.474Z,5.07
2019-05-03T18:02:34.846Z,4.43
2019-05-03T18:05:25.146Z,4.93
2019-05-03T18:07:56.291Z,6.20
2019-05-03T18:10:27.521Z,5.50
2019-05-03T18:12:57.942Z,5.20
2019-05-03T18:15:27.424Z,4.80
2019-05-03T18:17:57.878Z,5.50
2019-05-03T18:20:27.401Z,5.60
2019-05-03T18:22:56.872Z,5.50
2019-05-03T18:25:28.239Z,5.63
2019-05-03T18:27:57.689Z,5.40
2019-05-03T18:30:27.271Z,5.40
2019-05-03T18:32:56.750Z,6.20
2019-05-03T18:35:26.277Z,5.63
2019-05-03T18:37:58.450Z,5.20
2019-05-03T18:40:49.979Z,5.07
2019-05-03T18:43:23.233Z,5.60
2019-05-03T18:46:10.304Z,4.77
2019-05-03T18:48:40.719Z,5.20
2019-05-03T18:51:11.131Z,5.07
2019-05-03T18:53:41.583Z,5.67
2019-05-03T18:56:11.035Z,5.30
2019-05-03T18:58:40.490Z,6.67
2019-05-03T19:01:10.404Z,5.67
2019-05-03T19:03:39.941Z,4.90
2019-05-03T19:06:12.953Z,4.70
2019-05-03T19:08:44.783Z,4.50
2019-05-03T19:11:25.202Z,5.60
2019-05-03T19:14:01.525Z,4.47
2019-05-03T19:16:41.928Z,5.03
2019-05-03T19:19:12.777Z,5.13
2019-05-03T19:21:44.327Z,5.63
2019-05-03T19:24:15.211Z,5.13
2019-05-03T19:26:45.051Z,4.80
2019-05-03T19:29:15.612Z,5.33
2019-05-03T19:31:45.151Z,5.63
2019-05-03T19:34:15.419Z,5.73
2019-05-03T19:36:46.067Z,5.83
2019-05-03T19:39:15.854Z,4.97
2019-05-03T19:41:45.312Z,5.67
2019-05-03T19:44:15.219Z,5.40
2019-05-03T19:46:44.805Z,5.17
2019-05-03T19:49:14.246Z,5.83
2019-05-03T19:51:45.166Z,5.40
2019-05-03T19:54:14.780Z,6.00
2019-05-03T19:56:44.623Z,5.80
2019-05-03T19:59:25.488Z,5.63
2019-05-03T20:01:59.724Z,5.40
2019-05-03T20:04:32.832Z,5.67
2019-05-03T20:07:05.326Z,5.87
2019-05-03T20:09:35.143Z,5.80
2019-05-03T20:12:04.719Z,6.07
2019-05-03T20:14:35.723Z,6.90
2019-05-03T20:17:06.762Z,6.83
2019-05-03T20:19:36.443Z,6.07
2019-05-03T20:22:15.020Z,6.30
2019-05-03T20:24:44.724Z,6.30
2019-05-03T20:27:15.484Z,6.87
2019-05-03T20:29:46.258Z,7.17
2019-05-03T20:32:16.103Z,7.53
2019-05-03T20:34:45.759Z,7.37
2019-05-03T20:37:15.218Z,6.67
2019-05-03T20:39:44.788Z,8.23
2019-05-03T20:42:15.983Z,7.60
2019-05-03T20:44:54.493Z,7.83
2019-05-03T20:47:25.655Z,8.00
2019-05-03T20:50:12.907Z,8.30
2019-05-03T20:52:44.485Z,7.90
2019-05-03T20:55:15.523Z,8.30
2019-05-03T20:57:45.196Z,9.33
2019-05-03T21:00:17.063Z,8.47
2019-05-03T21:02:53.453Z,8.97
2019-05-03T21:05:29.689Z,9.70
2019-05-03T21:07:55.566Z,9.93
2019-05-03T21:10:32.821Z,8.93
2019-05-03T21:13:05.297Z,10.40
2019-05-03T21:15:51.144Z,10.20
2019-05-03T21:18:38.739Z,10.30
2019-05-03T21:21:11.780Z,9.77
2019-05-03T21:23:45.655Z,10.07
2019-05-03T21:26:16.585Z,10.50
2019-05-03T21:28:46.360Z,9.00
2019-05-03T21:31:15.835Z,9.33
2019-05-03T21:33:46.210Z,9.43
2019-05-03T21:36:15.699Z,9.10
2019-05-03T21:38:45.276Z,8.43
2019-05-03T21:41:15.624Z,7.57
2019-05-03T21:43:45.296Z,8.20
2019-05-03T21:46:25.488Z,7.60
2019-05-03T21:48:59.414Z,7.70
2019-05-03T21:51:28.868Z,8.40
2019-05-03T21:54:00.272Z,7.13
2019-05-03T21:56:29.731Z,8.13
2019-05-03T21:58:59.177Z,7.50
2019-05-03T22:01:28.847Z,7.77
2019-05-03T22:03:58.468Z,7.53
2019-05-03T22:06:28.941Z,8.07
2019-05-03T22:08:58.534Z,7.20
2019-05-03T22:11:34.892Z,7.43
2019-05-03T22:14:06.928Z,8.07
2019-05-03T22:16:38.013Z,8.00
2019-05-03T22:19:08.404Z,9.03
2019-05-03T22:21:45.279Z,8.90
2019-05-03T22:24:25.611Z,9.70
2019-05-03T22:26:59.718Z,10.37
2019-05-03T22:29:35.645Z,11.10
2019-05-03T22:32:05.497Z,10.93
2019-05-03T22:34:35.043Z,10.00
2019-05-03T22:37:05.477Z,11.10
2019-05-03T22:39:35.102Z,12.43
2019-05-03T22:42:04.731Z,11.90
2019-05-03T22:44:35.646Z,11.60
2019-05-03T22:47:05.635Z,11.43
2019-05-03T22:49:37.331Z,11.70
2019-05-03T22:52:06.486Z,12.67
2019-05-03T22:54:35.942Z,10.83
2019-05-03T22:57:06.360Z,8.93
2019-05-03T22:59:35.826Z,8.60
2019-05-03T23:02:05.283Z,7.70
2019-05-03T23:04:35.587Z,7.57
2019-05-03T23:07:05.663Z,6.93
2019-05-03T23:09:35.309Z,6.60
2019-05-03T23:12:06.832Z,6.73
2019-05-03T23:14:36.283Z,6.30
2019-05-03T23:17:05.746Z,6.03
2019-05-03T23:19:36.890Z,5.80
2019-05-03T23:22:07.997Z,6.10
2019-05-03T23:24:37.420Z,5.83
2019-05-03T23:27:06.909Z,7.37
2019-05-03T23:29:36.456Z,5.53
2019-05-03T23:32:06.013Z,4.90
2019-05-03T23:34:35.455Z,5.80
2019-05-03T23:37:05.870Z,5.00
2019-05-03T23:39:35.348Z,5.20
2019-05-03T23:42:05.303Z,5.13
2019-05-03T23:44:35.271Z,5.10
2019-05-03T23:47:16.280Z,6.50
2019-05-03T23:49:45.728Z,5.83
2019-05-03T23:52:26.893Z,6.37
2019-05-03T23:55:05.917Z,5.33
2019-05-03T23:57:35.761Z,4.83
